createdAt,value
2023-03-06T00:00:53.229Z,72.59
2023-03-06T00:03:20.908Z,72.59
2023-03-06T00:05:48.128Z,72.86
2023-03-06T00:08:15.036Z,72.65
2023-03-06T00:10:41.866Z,72.48
2023-03-06T00:13:11.937Z,72.57
2023-03-06T00:15:38.750Z,72.62
2023-03-06T00:18:07.356Z,72.85
2023-03-06T00:20:35.023Z,72.76
2023-03-06T00:23:02.050Z,73.03
2023-03-06T00:25:28.907Z,72.53
2023-03-06T00:27:55.738Z,72.77
2023-03-06T00:30:24.478Z,73.01
2023-03-06T00:32:53.362Z,72.79
2023-03-06T00:35:21.540Z,72.96
2023-03-06T00:37:48.543Z,72.86
2023-03-06T00:40:17.141Z,72.86
2023-03-06T00:42:43.976Z,72.93
2023-03-06T00:45:11.454Z,73.16
2023-03-06T00:47:38.260Z,73.18
2023-03-06T00:50:05.869Z,73.15
2023-03-06T00:52:34.183Z,73.10
2023-03-06T00:55:00.835Z,73.03
2023-03-06T00:57:27.599Z,73.14
2023-03-06T00:59:54.261Z,73.00
2023-03-06T01:02:21.299Z,72.97
2023-03-06T01:04:48.074Z,72.95
2023-03-06T01:07:14.809Z,73.14
2023-03-06T01:09:42.948Z,73.19
2023-03-06T01:12:09.820Z,72.90
2023-03-06T01:14:36.576Z,73.07
2023-03-06T01:17:03.351Z,73.25
2023-03-06T01:19:30.151Z,73.28
2023-03-06T01:21:56.982Z,73.22
2023-03-06T01:24:25.816Z,73.50
2023-03-06T01:26:54.146Z,73.34
2023-03-06T01:29:21.032Z,73.35
2023-03-06T01:31:47.804Z,73.43
2023-03-06T01:34:14.603Z,73.43
2023-03-06T01:36:41.412Z,73.09
2023-03-06T01:39:08.241Z,73.43
2023-03-06T01:41:35.317Z,73.22
2023-03-06T01:44:03.786Z,73.43
2023-03-06T01:46:34.437Z,73.41
2023-03-06T01:49:06.180Z,73.43
2023-03-06T01:51:37.951Z,73.66
2023-03-06T01:54:11.766Z,73.48
2023-03-06T01:56:43.471Z,73.94
2023-03-06T01:59:16.778Z,73.79
2023-03-06T02:01:44.716Z,73.57
2023-03-06T02:04:11.995Z,73.74
2023-03-06T02:06:43.184Z,73.50
2023-03-06T02:09:11.984Z,73.86
2023-03-06T02:11:39.084Z,73.47
2023-03-06T02:14:05.889Z,73.82
2023-03-06T02:16:34.259Z,73.97
2023-03-06T02:19:02.831Z,73.55
2023-03-06T02:21:34.299Z,73.79
2023-03-06T02:24:14.840Z,73.73
2023-03-06T02:26:45.261Z,73.77
2023-03-06T02:29:11.997Z,73.89
2023-03-06T02:31:38.725Z,74.02
2023-03-06T02:34:28.270Z,73.81
2023-03-06T02:36:58.630Z,73.78
2023-03-06T02:39:27.669Z,73.94
2023-03-06T02:41:55.817Z,74.24
2023-03-06T02:44:23.362Z,73.93
2023-03-06T02:46:50.025Z,73.99
2023-03-06T02:49:16.752Z,74.39
2023-03-06T02:51:43.495Z,74.09
2023-03-06T02:54:11.001Z,74.23
2023-03-06T02:56:37.949Z,74.00
2023-03-06T02:59:06.102Z,74.47
2023-03-06T03:01:32.843Z,74.19
2023-03-06T03:03:59.695Z,74.41
2023-03-06T03:06:26.431Z,74.57
2023-03-06T03:08:53.120Z,74.40
2023-03-06T03:11:20.014Z,74.60
2023-03-06T03:13:46.740Z,74.82
2023-03-06T03:16:15.808Z,74.87
2023-03-06T03:18:44.627Z,74.82
2023-03-06T03:21:13.112Z,74.43
2023-03-06T03:23:40.131Z,74.61
2023-03-06T03:26:08.010Z,74.90
2023-03-06T03:28:34.773Z,75.02
2023-03-06T03:31:03.553Z,74.91
2023-03-06T03:33:31.700Z,74.74
2023-03-06T03:35:59.116Z,74.93
2023-03-06T03:38:26.223Z,75.03
2023-03-06T03:40:53.182Z,74.63
2023-03-06T03:51:13.901Z,74.88
2023-03-06T03:53:40.691Z,74.60
2023-03-06T03:56:07.431Z,74.72
2023-03-06T03:58:34.300Z,75.29
2023-03-06T04:01:01.426Z,75.25
2023-03-06T04:03:28.163Z,75.00
2023-03-06T04:05:57.939Z,75.22
2023-03-06T04:08:26.613Z,75.12
2023-03-06T04:10:54.107Z,74.92
2023-03-06T04:13:22.345Z,75.03
2023-03-06T04:15:50.936Z,75.20
2023-03-06T04:18:18.605Z,74.87
2023-03-06T04:20:46.489Z,75.16
2023-03-06T04:23:13.864Z,75.34
2023-03-06T04:25:42.156Z,75.45
2023-03-06T04:28:09.287Z,75.18
2023-03-06T04:30:36.520Z,75.10
2023-03-06T04:33:40.636Z,75.21
2023-03-06T04:36:08.082Z,75.07
2023-03-06T04:38:34.934Z,75.03
2023-03-06T04:41:03.062Z,75.17
2023-03-06T04:43:29.737Z,75.28
2023-03-06T04:45:58.150Z,75.30
2023-03-06T04:48:24.875Z,75.54
2023-03-06T04:50:51.576Z,75.32
2023-03-06T04:53:19.636Z,75.15
2023-03-06T04:55:46.545Z,75.10
2023-03-06T04:58:15.156Z,75.23
2023-03-06T05:00:41.847Z,75.57
2023-03-06T05:03:09.014Z,75.31
2023-03-06T05:05:35.747Z,75.42
2023-03-06T05:08:02.442Z,75.57
2023-03-06T05:10:29.244Z,75.42
2023-03-06T05:12:55.941Z,75.38
2023-03-06T05:15:24.027Z,75.51
2023-03-06T05:17:51.016Z,75.36
2023-03-06T05:20:18.226Z,75.75
2023-03-06T05:22:45.136Z,75.36
2023-03-06T05:25:11.942Z,75.92
2023-03-06T05:27:39.044Z,75.50
2023-03-06T05:30:07.389Z,75.87
2023-03-06T05:32:36.018Z,75.85
2023-03-06T05:35:04.384Z,75.77
2023-03-06T05:37:31.921Z,75.62
2023-03-06T05:39:58.970Z,75.55
2023-03-06T05:42:27.612Z,75.81
2023-03-06T05:44:55.255Z,75.52
2023-03-06T05:47:21.938Z,75.73
2023-03-06T05:49:50.396Z,75.52
2023-03-06T05:52:17.610Z,75.88
2023-03-06T05:54:44.482Z,75.78
2023-03-06T05:57:11.341Z,76.13
2023-03-06T05:59:38.041Z,76.10
2023-03-06T06:02:05.620Z,76.02
2023-03-06T06:04:32.684Z,75.80
2023-03-06T06:07:01.156Z,75.89
2023-03-06T06:09:28.612Z,76.18
2023-03-06T06:11:57.958Z,75.81
2023-03-06T06:14:25.637Z,76.21
2023-03-06T06:16:52.828Z,75.85
2023-03-06T06:19:20.348Z,76.18
2023-03-06T06:21:48.609Z,76.19
2023-03-06T06:24:18.905Z,76.28
2023-03-06T06:26:46.101Z,76.09
2023-03-06T06:29:13.504Z,76.04
2023-03-06T06:31:40.699Z,76.24
2023-03-06T06:34:09.059Z,76.44
2023-03-06T06:36:35.958Z,76.19
2023-03-06T06:39:03.706Z,76.83
2023-03-06T06:41:46.639Z,76.88
2023-03-06T06:44:19.353Z,76.71
2023-03-06T06:49:33.923Z,76.71
2023-03-06T06:52:01.010Z,76.62
2023-03-06T06:54:28.213Z,76.72
2023-03-06T06:56:56.415Z,76.26
2023-03-06T06:59:24.100Z,76.67
2023-03-06T07:01:52.393Z,76.88
2023-03-06T07:04:20.461Z,77.03
2023-03-06T07:06:55.134Z,76.84
2023-03-06T07:09:25.068Z,76.76
2023-03-06T07:11:52.192Z,76.70
2023-03-06T07:14:23.656Z,76.89
2023-03-06T07:16:52.115Z,76.53
2023-03-06T07:19:18.962Z,76.73
2023-03-06T07:21:45.764Z,76.68
2023-03-06T07:24:17.319Z,76.52
2023-03-06T07:26:46.724Z,76.75
2023-03-06T07:29:13.873Z,76.97
2023-03-06T07:31:43.670Z,76.65
2023-03-06T07:34:13.775Z,76.72
2023-03-06T07:36:41.366Z,76.93
2023-03-06T07:39:10.204Z,76.77
2023-03-06T07:41:37.918Z,77.37
2023-03-06T07:44:04.700Z,77.06
2023-03-06T07:46:31.511Z,77.53
2023-03-06T07:49:00.739Z,77.32
2023-03-06T07:51:27.559Z,76.99
2023-03-06T07:53:54.410Z,77.32
2023-03-06T07:56:21.197Z,77.21
2023-03-06T07:58:48.353Z,76.95
2023-03-06T08:01:17.378Z,77.20
2023-03-06T08:03:45.323Z,77.17
2023-03-06T08:06:21.850Z,77.07
2023-03-06T08:08:53.306Z,77.14
2023-03-06T08:11:22.231Z,76.83
2023-03-06T08:13:52.707Z,77.18
2023-03-06T08:16:22.269Z,76.94
2023-03-06T08:18:49.021Z,76.91
2023-03-06T08:21:20.679Z,76.87
2023-03-06T08:23:48.092Z,77.15
2023-03-06T08:26:16.767Z,77.09
2023-03-06T08:28:50.977Z,76.84
2023-03-06T08:31:28.692Z,76.68
2023-03-06T08:33:57.148Z,76.74
2023-03-06T08:36:27.031Z,76.56
2023-03-06T08:38:54.273Z,76.62
2023-03-06T08:41:21.825Z,76.62
2023-03-06T08:43:50.288Z,76.51
2023-03-06T08:46:18.936Z,76.26
2023-03-06T08:48:47.793Z,76.44
2023-03-06T08:51:15.691Z,76.28
2023-03-06T08:53:45.808Z,76.49
2023-03-06T08:56:18.900Z,76.38
2023-03-06T08:58:49.063Z,76.20
2023-03-06T09:01:17.640Z,76.05
2023-03-06T09:03:44.794Z,76.06
2023-03-06T09:06:13.606Z,76.10
2023-03-06T09:08:43.276Z,75.86
2023-03-06T09:11:13.245Z,75.68
2023-03-06T09:13:40.856Z,75.63
2023-03-06T09:16:08.444Z,75.39
2023-03-06T09:18:35.360Z,74.90
2023-03-06T09:21:02.518Z,74.85
2023-03-06T09:23:29.376Z,74.61
2023-03-06T09:25:58.302Z,74.21
2023-03-06T09:28:26.896Z,74.32
2023-03-06T09:30:55.201Z,74.52
2023-03-06T09:33:22.979Z,74.06
2023-03-06T09:35:52.108Z,73.75
2023-03-06T09:38:20.340Z,73.75
2023-03-06T09:41:04.281Z,73.03
2023-03-06T09:43:38.403Z,73.11
2023-03-06T09:46:20.018Z,73.34
2023-03-06T09:49:01.944Z,72.82
2023-03-06T09:51:39.348Z,72.58
2023-03-06T09:54:12.525Z,72.67
2023-03-06T09:56:46.208Z,72.36
2023-03-06T09:59:19.113Z,72.17
2023-03-06T10:01:57.605Z,71.53
2023-03-06T10:04:38.627Z,71.40
2023-03-06T10:07:13.214Z,71.54
2023-03-06T10:09:45.426Z,71.81
2023-03-06T10:12:24.514Z,71.38
2023-03-06T10:15:02.043Z,71.81
2023-03-06T10:17:36.363Z,71.70
2023-03-06T10:20:15.487Z,71.77
2023-03-06T10:22:52.567Z,70.86
2023-03-06T10:25:31.481Z,70.72
2023-03-06T10:28:09.185Z,70.52
2023-03-06T10:30:46.839Z,70.58
2023-03-06T10:33:22.434Z,70.42
2023-03-06T10:35:50.827Z,70.66
2023-03-06T10:38:21.134Z,70.32
2023-03-06T10:40:58.592Z,70.50
2023-03-06T10:43:25.432Z,70.54
2023-03-06T10:45:53.963Z,70.39
2023-03-06T10:48:23.218Z,70.24
2023-03-06T10:50:50.412Z,70.09
2023-03-06T10:53:25.578Z,69.96
2023-03-06T10:55:54.987Z,68.68
2023-03-06T10:58:26.097Z,68.30
2023-03-06T11:01:19.459Z,67.34
2023-03-06T11:03:50.891Z,66.63
2023-03-06T11:06:34.912Z,65.72
2023-03-06T11:09:14.418Z,66.22
2023-03-06T11:11:44.852Z,66.70
2023-03-06T11:14:17.625Z,65.22
2023-03-06T11:16:56.181Z,66.19
2023-03-06T11:19:27.336Z,66.18
2023-03-06T11:22:19.169Z,66.57
2023-03-06T11:24:50.713Z,66.70
2023-03-06T11:27:28.075Z,66.74
2023-03-06T11:29:58.818Z,66.70
2023-03-06T11:32:30.653Z,66.54
2023-03-06T11:35:03.910Z,66.69
2023-03-06T11:37:43.614Z,66.59
2023-03-06T11:40:20.040Z,66.73
2023-03-06T11:42:53.940Z,66.58
2023-03-06T11:45:26.608Z,66.57
2023-03-06T11:48:12.109Z,66.11
2023-03-06T11:50:42.745Z,65.83
2023-03-06T11:53:12.282Z,66.05
2023-03-06T11:55:53.649Z,66.04
2023-03-06T11:58:52.390Z,65.92
2023-03-06T12:01:26.711Z,65.48
2023-03-06T12:04:25.179Z,65.34
2023-03-06T12:07:01.916Z,65.39
2023-03-06T12:09:40.698Z,65.39
2023-03-06T12:12:27.334Z,65.18
2023-03-06T12:15:10.355Z,64.77
2023-03-06T12:17:54.096Z,65.11
2023-03-06T12:20:39.076Z,64.98
2023-03-06T12:23:19.759Z,64.95
2023-03-06T12:25:52.175Z,64.78
2023-03-06T12:28:40.727Z,64.88
2023-03-06T12:31:32.760Z,64.75
2023-03-06T12:34:17.543Z,64.48
2023-03-06T12:37:00.018Z,64.68
2023-03-06T12:39:42.565Z,64.85
2023-03-06T12:42:23.981Z,64.83
2023-03-06T12:45:29.644Z,65.05
2023-03-06T12:47:59.339Z,64.69
2023-03-06T12:50:32.577Z,64.47
2023-03-06T12:53:04.525Z,64.31
2023-03-06T12:55:39.651Z,64.48
2023-03-06T12:58:49.319Z,64.51
2023-03-06T13:01:48.324Z,64.21
2023-03-06T13:04:35.599Z,64.48
2023-03-06T13:07:32.398Z,64.51
2023-03-06T13:10:07.907Z,64.22
2023-03-06T13:12:57.406Z,64.26
2023-03-06T13:15:42.896Z,64.30
2023-03-06T13:18:46.156Z,64.46
2023-03-06T13:21:46.291Z,64.43
2023-03-06T13:24:19.724Z,64.11
2023-03-06T13:27:01.265Z,64.31
2023-03-06T13:30:30.991Z,63.84
2023-03-06T13:32:58.395Z,63.77
2023-03-06T13:35:54.769Z,63.43
2023-03-06T13:39:03.565Z,63.65
2023-03-06T13:41:41.775Z,63.55
2023-03-06T13:44:47.453Z,63.66
2023-03-06T13:48:09.758Z,63.19
2023-03-06T13:50:38.042Z,63.44
2023-03-06T13:53:36.710Z,63.37
2023-03-06T13:56:18.160Z,63.53
2023-03-06T13:59:00.211Z,63.44
2023-03-06T14:01:42.013Z,63.30
2023-03-06T14:04:34.552Z,63.48
2023-03-06T14:07:11.595Z,63.31
2023-03-06T14:09:44.885Z,63.26
2023-03-06T14:12:20.649Z,63.38
2023-03-06T14:14:52.982Z,63.55
2023-03-06T14:17:26.726Z,63.79
2023-03-06T14:19:58.177Z,63.94
2023-03-06T14:22:25.083Z,63.83
2023-03-06T14:24:56.487Z,63.53
2023-03-06T14:27:48.101Z,63.67
2023-03-06T14:30:20.188Z,63.76
2023-03-06T14:32:48.556Z,63.57
2023-03-06T14:35:26.831Z,63.72
2023-03-06T14:37:56.908Z,63.70
2023-03-06T14:40:31.759Z,63.65
2023-03-06T14:43:22.006Z,63.77
2023-03-06T14:45:56.369Z,63.93
2023-03-06T14:48:26.860Z,64.02
2023-03-06T14:50:56.275Z,63.93
2023-03-06T14:53:28.793Z,63.77
2023-03-06T14:56:00.392Z,63.64
2023-03-06T14:58:32.570Z,64.09
2023-03-06T15:01:04.002Z,64.31
2023-03-06T15:03:42.354Z,64.89
2023-03-06T15:06:15.534Z,64.83
2023-03-06T15:08:48.095Z,65.03
2023-03-06T15:11:15.182Z,65.20
2023-03-06T15:13:44.421Z,65.43
2023-03-06T15:16:29.628Z,65.56
2023-03-06T15:19:00.291Z,65.63
2023-03-06T15:21:38.335Z,65.75
2023-03-06T15:24:30.654Z,65.83
2023-03-06T15:27:01.488Z,65.63
2023-03-06T15:29:28.414Z,65.60
2023-03-06T15:32:15.049Z,65.47
2023-03-06T15:34:42.364Z,65.64
2023-03-06T15:37:28.691Z,65.63
2023-03-06T15:40:11.337Z,65.44
2023-03-06T15:42:38.149Z,65.23
2023-03-06T15:45:15.874Z,65.36
2023-03-06T15:47:43.305Z,65.47
2023-03-06T15:50:19.075Z,65.45
2023-03-06T15:52:49.283Z,65.33
2023-03-06T15:55:17.865Z,65.70
2023-03-06T15:57:49.925Z,65.89
2023-03-06T16:00:27.595Z,66.04
2023-03-06T16:02:57.196Z,66.24
2023-03-06T16:05:26.012Z,66.47
2023-03-06T16:07:55.170Z,67.05
2023-03-06T16:10:23.608Z,67.69
2023-03-06T16:12:54.103Z,67.72
2023-03-06T16:15:23.982Z,68.34
2023-03-06T16:17:50.755Z,68.56
2023-03-06T16:20:20.134Z,68.78
2023-03-06T16:22:48.014Z,69.05
2023-03-06T16:25:17.558Z,68.89
2023-03-06T16:27:49.743Z,69.00
2023-03-06T16:30:19.055Z,69.10
2023-03-06T16:32:49.050Z,69.25
2023-03-06T16:35:16.024Z,69.33
2023-03-06T16:37:43.087Z,69.53
2023-03-06T16:40:20.174Z,69.60
2023-03-06T16:42:47.247Z,69.59
2023-03-06T16:45:14.838Z,69.49
2023-03-06T16:47:42.580Z,69.37
2023-03-06T16:50:22.090Z,69.37
2023-03-06T16:52:51.702Z,69.38
2023-03-06T16:55:21.037Z,69.29
2023-03-06T16:57:48.216Z,69.37
2023-03-06T17:00:16.855Z,69.44
2023-03-06T17:02:43.885Z,69.44
2023-03-06T17:05:13.594Z,69.49
2023-03-06T17:07:40.994Z,69.56
2023-03-06T17:10:10.465Z,69.71
2023-03-06T17:12:38.605Z,70.02
2023-03-06T17:15:07.746Z,70.07
2023-03-06T17:17:35.186Z,70.17
2023-03-06T17:20:02.209Z,70.32
2023-03-06T17:22:29.035Z,70.61
2023-03-06T17:24:56.142Z,70.74
2023-03-06T17:27:23.305Z,71.14
2023-03-06T17:29:51.840Z,71.11
2023-03-06T17:32:18.920Z,71.25
2023-03-06T17:34:46.975Z,71.42
2023-03-06T17:37:14.014Z,71.52
2023-03-06T17:39:41.661Z,71.72
2023-03-06T17:42:09.037Z,71.76
2023-03-06T17:44:36.485Z,71.71
2023-03-06T17:47:12.986Z,71.83
2023-03-06T17:49:41.218Z,71.84
2023-03-06T17:52:08.320Z,71.81
2023-03-06T17:54:40.777Z,72.06
2023-03-06T17:57:08.050Z,72.05
2023-03-06T17:59:35.141Z,72.31
2023-03-06T18:02:02.809Z,72.31
2023-03-06T18:04:32.310Z,72.68
2023-03-06T18:06:59.297Z,72.74
2023-03-06T18:09:27.646Z,72.96
2023-03-06T18:11:55.895Z,72.88
2023-03-06T18:14:22.979Z,72.99
2023-03-06T18:16:50.330Z,73.08
2023-03-06T18:19:17.859Z,73.21
2023-03-06T18:21:49.657Z,73.54
2023-03-06T18:24:18.119Z,73.62
2023-03-06T18:26:45.864Z,73.30
2023-03-06T18:29:13.670Z,73.32
2023-03-06T18:31:42.289Z,73.61
2023-03-06T18:34:16.247Z,73.70
2023-03-06T18:36:44.016Z,73.64
2023-03-06T18:39:14.673Z,73.38
2023-03-06T18:41:42.454Z,73.44
2023-03-06T18:44:15.230Z,73.62
2023-03-06T18:46:43.766Z,73.47
2023-03-06T18:49:11.811Z,73.68
2023-03-06T18:51:41.184Z,73.97
2023-03-06T18:54:08.362Z,73.91
2023-03-06T18:56:36.711Z,73.84
2023-03-06T18:59:05.120Z,73.77
2023-03-06T19:01:38.269Z,73.86
2023-03-06T19:04:05.900Z,73.75
2023-03-06T19:06:33.275Z,74.09
2023-03-06T19:09:02.802Z,74.17
2023-03-06T19:11:40.915Z,74.40
2023-03-06T19:14:10.188Z,74.26
2023-03-06T19:16:37.594Z,74.29
2023-03-06T19:19:04.567Z,74.28
2023-03-06T19:21:31.913Z,74.35
2023-03-06T19:24:01.682Z,74.45
2023-03-06T19:26:31.683Z,74.33
2023-03-06T19:28:59.071Z,74.32
2023-03-06T19:31:29.344Z,74.29
2023-03-06T19:33:57.951Z,74.40
2023-03-06T19:36:28.829Z,74.25
2023-03-06T19:38:58.986Z,73.75
2023-03-06T19:41:27.363Z,74.08
2023-03-06T19:43:58.694Z,73.95
2023-03-06T19:46:30.043Z,74.00
2023-03-06T19:49:01.269Z,73.99
2023-03-06T19:51:30.218Z,74.00
2023-03-06T19:53:58.340Z,73.88
2023-03-06T19:56:26.870Z,73.97
2023-03-06T19:58:54.441Z,74.29
2023-03-06T20:01:23.579Z,74.41
2023-03-06T20:03:58.685Z,74.33
2023-03-06T20:06:30.497Z,74.45
2023-03-06T20:08:57.820Z,74.41
2023-03-06T20:11:30.170Z,74.22
2023-03-06T20:13:58.312Z,74.45
2023-03-06T20:16:27.919Z,74.65
2023-03-06T20:18:59.395Z,74.74
2023-03-06T20:21:28.124Z,74.78
2023-03-06T20:23:57.981Z,74.66
2023-03-06T20:26:29.311Z,74.78
2023-03-06T20:28:56.635Z,74.71
2023-03-06T20:31:26.321Z,74.92
2023-03-06T20:33:54.994Z,75.32
2023-03-06T20:36:25.135Z,75.43
2023-03-06T20:38:52.002Z,75.46
2023-03-06T20:41:20.928Z,75.40
2023-03-06T20:43:50.128Z,75.35
2023-03-06T20:46:18.469Z,75.50
2023-03-06T20:48:49.124Z,75.80
2023-03-06T20:51:18.731Z,76.04
2023-03-06T20:53:50.920Z,75.86
2023-03-06T20:56:25.506Z,76.04
2023-03-06T20:58:55.626Z,76.38
2023-03-06T21:01:26.909Z,76.56
2023-03-06T21:03:56.846Z,76.62
2023-03-06T21:06:27.073Z,77.10
2023-03-06T21:08:58.390Z,77.41
2023-03-06T21:11:26.009Z,77.19
2023-03-06T21:13:56.576Z,77.26
2023-03-06T21:16:25.756Z,77.29
2023-03-06T21:19:04.099Z,77.27
2023-03-06T21:21:54.811Z,77.44
2023-03-06T21:24:23.325Z,77.56
2023-03-06T21:26:52.143Z,77.57
2023-03-06T21:29:20.345Z,77.36
2023-03-06T21:31:49.984Z,77.75
2023-03-06T21:34:17.606Z,77.66
2023-03-06T21:36:52.494Z,77.73
2023-03-06T21:39:20.229Z,77.73
2023-03-06T21:41:48.524Z,77.81
2023-03-06T21:44:17.798Z,77.65
2023-03-06T21:46:45.795Z,77.56
2023-03-06T21:49:13.066Z,77.65
2023-03-06T21:51:43.342Z,77.60
2023-03-06T21:54:10.666Z,77.65
2023-03-06T21:56:41.727Z,78.10
2023-03-06T21:59:17.681Z,77.86
2023-03-06T22:01:45.108Z,78.32
2023-03-06T22:04:12.249Z,78.25
2023-03-06T22:06:41.422Z,78.57
2023-03-06T22:09:16.606Z,79.03
2023-03-06T22:11:44.417Z,78.60
2023-03-06T22:14:15.026Z,78.61
2023-03-06T22:16:42.308Z,78.83
2023-03-06T22:19:12.639Z,79.00
2023-03-06T22:21:40.899Z,79.40
2023-03-06T22:24:11.067Z,79.47
2023-03-06T22:26:38.935Z,79.83
2023-03-06T22:29:06.408Z,79.93
2023-03-06T22:31:40.286Z,79.99
2023-03-06T22:34:08.933Z,80.03
2023-03-06T22:36:36.352Z,79.91
2023-03-06T22:39:07.505Z,80.48
2023-03-06T22:41:34.727Z,80.22
2023-03-06T22:44:03.824Z,80.14
2023-03-06T22:46:32.240Z,80.09
2023-03-06T22:49:11.534Z,80.37
2023-03-06T22:51:40.846Z,80.61
2023-03-06T22:54:09.269Z,80.61
2023-03-06T22:56:37.018Z,80.66
2023-03-06T22:59:04.832Z,80.71
2023-03-06T23:01:38.158Z,80.75
2023-03-06T23:04:11.868Z,80.67
2023-03-06T23:06:45.694Z,80.96
2023-03-06T23:09:18.474Z,80.81
2023-03-06T23:11:45.449Z,80.88
2023-03-06T23:14:12.872Z,80.83
2023-03-06T23:16:40.803Z,81.20
2023-03-06T23:19:09.600Z,81.13
2023-03-06T23:21:37.509Z,80.99
2023-03-06T23:24:05.708Z,80.75
2023-03-06T23:26:36.698Z,80.56
2023-03-06T23:29:04.866Z,80.73
2023-03-06T23:31:35.859Z,80.54
2023-03-06T23:34:06.306Z,80.65
2023-03-06T23:36:34.750Z,80.75
2023-03-06T23:39:02.204Z,80.95
2023-03-06T23:41:29.105Z,80.98
2023-03-06T23:43:58.926Z,81.18
2023-03-06T23:46:26.094Z,81.10
2023-03-06T23:48:53.084Z,81.08
2023-03-06T23:51:22.140Z,81.13
2023-03-06T23:53:55.249Z,81.14
2023-03-06T23:56:23.935Z,81.41
2023-03-06T23:58:51.816Z,81.52
